KBMG/BMG METAR and TAF weather

Enter ICAO airport designator
Station Type Date Time Source
KBMG METAR 2022/06/28 11:53 UTC NOAA

KBMG 281153Z 00000KT 10SM CLR 13/10 A3027 RMK AO2 SLP245 T01330100 10133 20106 53008


Station Type Date Time Source
KBMG Decoded METAR 2022/06/28 11:53 UTC NOAA

MONROE COUNTY AIRPORT, IN, United States (KBMG) 39-09N 086-37W 257M
Jun 28, 2022 - 07:53 AM EDT / 2022.06.28 1153 UTC
Wind: Calm:0
Visibility: 10 mile(s):0
Sky conditions: clear
Temperature: 55.9 F (13.3 C)
Dew Point: 50.0 F (10.0 C)
Relative Humidity: 80%
Pressure (altimeter): 30.27 in. Hg (1025 hPa)
Pressure tendency: 0.02 inches (0.8 hPa) higher than three hours ago
ob: KBMG 281153Z 00000KT 10SM CLR 13/10 A3027 RMK AO2 SLP245 T01330100 10133 20106 53008
cycle: 12

Station Type Date Time Source
KBMG TAF 2022/06/28 12:22 UTC NOAA

TAF KBMG 281120Z 2812/2912 VRB04KT P6SM SCT250
FM290100 00000KT P6SM FEW250
AMD LTD TO CLD VIS AND WIND TIL 281300

Example: see airport list